sensor_id;sensor_type;location;lat;lon;timestamp;pressure;altitude;pressure_sealevel;temperature;humidity
5500;BME280;2772;42.700;23.304;2023-08-31T00:02:20;94597.81;;;22.35;100.00
5500;BME280;2772;42.700;23.304;2023-08-31T00:04:47;94597.81;;;22.31;100.00
5500;BME280;2772;42.700;23.304;2023-08-31T00:07:17;94598.22;;;22.30;100.00
5500;BME280;2772;42.700;23.304;2023-08-31T00:09:44;94596.69;;;22.25;100.00
5500;BME280;2772;42.700;23.304;2023-08-31T00:12:11;94597.47;;;22.22;100.00
5500;BME280;2772;42.700;23.304;2023-08-31T00:14:38;94604.06;;;22.21;100.00
5500;BME280;2772;42.700;23.304;2023-08-31T00:17:06;94597.47;;;22.19;100.00
5500;BME280;2772;42.700;23.304;2023-08-31T00:19:32;94596.69;;;22.25;100.00
5500;BME280;2772;42.700;23.304;2023-08-31T00:21:59;94590.13;;;22.23;100.00
5500;BME280;2772;42.700;23.304;2023-08-31T00:24:26;94604.84;;;22.22;100.00
5500;BME280;2772;42.700;23.304;2023-08-31T00:26:57;94612.97;;;22.25;100.00
5500;BME280;2772;42.700;23.304;2023-08-31T00:29:23;94600.19;;;22.29;100.00
5500;BME280;2772;42.700;23.304;2023-08-31T00:31:50;94608.72;;;22.28;100.00
5500;BME280;2772;42.700;23.304;2023-08-31T00:34:20;94607.94;;;22.20;100.00
5500;BME280;2772;42.700;23.304;2023-08-31T00:36:46;94618.06;;;22.06;100.00
5500;BME280;2772;42.700;23.304;2023-08-31T00:39:13;94613.03;;;22.01;100.00
5500;BME280;2772;42.700;23.304;2023-08-31T00:41:40;94613.41;;;21.99;100.00
5500;BME280;2772;42.700;23.304;2023-08-31T00:44:07;94625.06;;;21.96;100.00
5500;BME280;2772;42.700;23.304;2023-08-31T00:46:34;94626.63;;;21.90;100.00
5500;BME280;2772;42.700;23.304;2023-08-31T00:49:01;94621.97;;;21.87;100.00
5500;BME280;2772;42.700;23.304;2023-08-31T00:51:30;94631.63;;;21.74;100.00
5500;BME280;2772;42.700;23.304;2023-08-31T00:53:57;94626.59;;;21.83;100.00
5500;BME280;2772;42.700;23.304;2023-08-31T00:56:24;94627.41;;;21.87;100.00
5500;BME280;2772;42.700;23.304;2023-08-31T00:58:51;94628.94;;;21.77;100.00
5500;BME280;2772;42.700;23.304;2023-08-31T01:01:24;94630.50;;;21.82;100.00
5500;BME280;2772;42.700;23.304;2023-08-31T01:03:58;94631.28;;;21.79;100.00
5500;BME280;2772;42.700;23.304;2023-08-31T01:06:38;94627.00;;;21.85;100.00
5500;BME280;2772;42.700;23.304;2023-08-31T01:09:15;94632.81;;;21.83;100.00
5500;BME280;2772;42.700;23.304;2023-08-31T01:11:56;94635.13;;;21.74;100.00
5500;BME280;2772;42.700;23.304;2023-08-31T01:14:27;94631.66;;;21.77;100.00
5500;BME280;2772;42.700;23.304;2023-08-31T01:16:58;94632.81;;;21.76;100.00
5500;BME280;2772;42.700;23.304;2023-08-31T01:19:40;94632.81;;;21.76;100.00
5500;BME280;2772;42.700;23.304;2023-08-31T01:22:14;94636.69;;;21.75;100.00
5500;BME280;2772;42.700;23.304;2023-08-31T01:24:44;94635.53;;;21.80;100.00
5500;BME280;2772;42.700;23.304;2023-08-31T01:27:11;94627.00;;;21.81;100.00
5500;BME280;2772;42.700;23.304;2023-08-31T01:29:38;94631.28;;;21.82;100.00
5500;BME280;2772;42.700;23.304;2023-08-31T01:32:06;94631.66;;;21.77;100.00
5500;BME280;2772;42.700;23.304;2023-08-31T01:34:33;94628.94;;;21.81;100.00
5500;BME280;2772;42.700;23.304;2023-08-31T01:37:17;94628.16;;;21.70;100.00
5500;BME280;2772;42.700;23.304;2023-08-31T01:39:52;94629.69;;;21.71;100.00
5500;BME280;2772;42.700;23.304;2023-08-31T01:42:20;94630.47;;;21.75;100.00
5500;BME280;2772;42.700;23.304;2023-08-31T01:44:48;94631.63;;;21.63;100.00
5500;BME280;2772;42.700;23.304;2023-08-31T01:47:16;94624.66;;;21.59;100.00
5500;BME280;2772;42.700;23.304;2023-08-31T01:49:44;94628.13;;;21.59;100.00
5500;BME280;2772;42.700;23.304;2023-08-31T01:52:11;94628.16;;;21.56;100.00
5500;BME280;2772;42.700;23.304;2023-08-31T01:54:38;94635.13;;;21.57;100.00
5500;BME280;2772;42.700;23.304;2023-08-31T01:57:06;94635.13;;;21.57;100.00
5500;BME280;2772;42.700;23.304;2023-08-31T01:59:33;94644.78;;;21.47;100.00
5500;BME280;2772;42.700;23.304;2023-08-31T02:02:00;94638.59;;;21.40;100.00
5500;BME280;2772;42.700;23.304;2023-08-31T02:04:27;94642.84;;;21.41;100.00
5500;BME280;2772;42.700;23.304;2023-08-31T02:06:54;94641.31;;;21.40;100.00
5500;BME280;2772;42.700;23.304;2023-08-31T02:09:21;94650.19;;;21.37;100.00
5500;BME280;2772;42.700;23.304;2023-08-31T02:11:47;94649.81;;;21.38;100.00
5500;BME280;2772;42.700;23.304;2023-08-31T02:14:15;94655.59;;;21.33;100.00
5500;BME280;2772;42.700;23.304;2023-08-31T02:16:42;94652.53;;;21.42;100.00
5500;BME280;2772;42.700;23.304;2023-08-31T02:19:09;94651.34;;;21.39;100.00
5500;BME280;2772;42.700;23.304;2023-08-31T02:21:36;94652.50;;;21.35;100.00
5500;BME280;2772;42.700;23.304;2023-08-31T02:24:04;94643.63;;;21.38;100.00
5500;BME280;2772;42.700;23.304;2023-08-31T02:26:31;94651.38;;;21.32;100.00
5500;BME280;2772;42.700;23.304;2023-08-31T02:28:58;94650.56;;;21.11;100.00
5500;BME280;2772;42.700;23.304;2023-08-31T02:31:26;94645.91;;;21.15;100.00
5500;BME280;2772;42.700;23.304;2023-08-31T02:33:53;94639.31;;;21.05;100.00
5500;BME280;2772;42.700;23.304;2023-08-31T02:36:19;94639.25;;;20.95;100.00
5500;BME280;2772;42.700;23.304;2023-08-31T02:38:47;94642.75;;;20.99;100.00
5500;BME280;2772;42.700;23.304;2023-08-31T02:41:15;94651.31;;;21.04;100.00
5500;BME280;2772;42.700;23.304;2023-08-31T02:43:41;94649.34;;;20.98;100.00
5500;BME280;2772;42.700;23.304;2023-08-31T02:46:08;94644.34;;;21.00;100.00
5500;BME280;2772;42.700;23.304;2023-08-31T02:48:36;94652.78;;;20.95;100.00
5500;BME280;2772;42.700;23.304;2023-08-31T02:51:04;94646.59;;;20.87;100.00
5500;BME280;2772;42.700;23.304;2023-08-31T02:53:30;94645.06;;;20.93;100.00
5500;BME280;2772;42.700;23.304;2023-08-31T02:55:57;94646.59;;;20.87;100.00
5500;BME280;2772;42.700;23.304;2023-08-31T02:58:24;94656.63;;;20.87;100.00
5500;BME280;2772;42.700;23.304;2023-08-31T03:00:51;94665.16;;;20.92;100.00
5500;BME280;2772;42.700;23.304;2023-08-31T03:03:18;94677.53;;;20.93;100.00
5500;BME280;2772;42.700;23.304;2023-08-31T03:05:47;94660.50;;;20.89;100.00
5500;BME280;2772;42.700;23.304;2023-08-31T03:08:13;94674.41;;;20.81;100.00
5500;BME280;2772;42.700;23.304;2023-08-31T03:10:40;94679.00;;;20.77;100.00
5500;BME280;2772;42.700;23.304;2023-08-31T03:13:07;94676.69;;;20.75;100.00
5500;BME280;2772;42.700;23.304;2023-08-31T03:15:34;94675.13;;;20.71;100.00
5500;BME280;2772;42.700;23.304;2023-08-31T03:18:01;94682.09;;;20.75;100.00
5500;BME280;2772;42.700;23.304;2023-08-31T03:20:28;94676.69;;;20.72;100.00
5500;BME280;2772;42.700;23.304;2023-08-31T03:22:56;94685.19;;;20.74;100.00
5500;BME280;2772;42.700;23.304;2023-08-31T03:25:22;94677.44;;;20.65;100.00
5500;BME280;2772;42.700;23.304;2023-08-31T03:27:49;94683.59;;;20.66;100.00
5500;BME280;2772;42.700;23.304;2023-08-31T03:30:16;94674.31;;;20.63;100.00
5500;BME280;2772;42.700;23.304;2023-08-31T03:32:43;94682.47;;;20.74;100.00
5500;BME280;2772;42.700;23.304;2023-08-31T03:35:10;94679.03;;;20.80;100.00
5500;BME280;2772;42.700;23.304;2023-08-31T03:37:37;94679.81;;;20.81;100.00
5500;BME280;2772;42.700;23.304;2023-08-31T03:40:06;94678.28;;;20.83;100.00
5500;BME280;2772;42.700;23.304;2023-08-31T03:42:33;94684.44;;;20.80;100.00
5500;BME280;2772;42.700;23.304;2023-08-31T03:45:00;94696.09;;;20.84;100.00
5500;BME280;2772;42.700;23.304;2023-08-31T03:47:27;94692.22;;;20.85;100.00
5500;BME280;2772;42.700;23.304;2023-08-31T03:49:54;94700.75;;;20.87;100.00
5500;BME280;2772;42.700;23.304;2023-08-31T03:52:20;94701.84;;;20.76;100.00
5500;BME280;2772;42.700;23.304;2023-08-31T03:54:48;94699.84;;;20.66;100.00
5500;BME280;2772;42.700;23.304;2023-08-31T03:57:17;94699.47;;;20.67;100.00
5500;BME280;2772;42.700;23.304;2023-08-31T03:59:44;94696.41;;;20.72;100.00
5500;BME280;2772;42.700;23.304;2023-08-31T04:02:11;94699.50;;;20.71;100.00
5500;BME280;2772;42.700;23.304;2023-08-31T04:04:37;94710.69;;;20.69;100.00
5500;BME280;2772;42.700;23.304;2023-08-31T04:07:04;94730.78;;;20.65;100.00
5500;BME280;2772;42.700;23.304;2023-08-31T04:09:31;94736.16;;;20.58;100.00
5500;BME280;2772;42.700;23.304;2023-08-31T04:11:58;94747.34;;;20.53;100.00
5500;BME280;2772;42.700;23.304;2023-08-31T04:14:27;94753.53;;;20.57;100.00
5500;BME280;2772;42.700;23.304;2023-08-31T04:16:54;94753.91;;;20.48;100.00
5500;BME280;2772;42.700;23.304;2023-08-31T04:19:21;94760.81;;;20.45;100.00
5500;BME280;2772;42.700;23.304;2023-08-31T04:21:47;94753.09;;;20.48;100.00
5500;BME280;2772;42.700;23.304;2023-08-31T04:24:14;94760.44;;;20.43;100.00
5500;BME280;2772;42.700;23.304;2023-08-31T04:26:42;94758.94;;;20.50;100.00
5500;BME280;2772;42.700;23.304;2023-08-31T04:29:09;94757.34;;;20.45;100.00
5500;BME280;2772;42.700;23.304;2023-08-31T04:31:37;94766.22;;;20.42;100.00
5500;BME280;2772;42.700;23.304;2023-08-31T04:34:04;94762.00;;;20.48;100.00
5500;BME280;2772;42.700;23.304;2023-08-31T04:36:32;94761.63;;;20.53;100.00
5500;BME280;2772;42.700;23.304;2023-08-31T04:38:57;94764.03;;;20.62;100.00
5500;BME280;2772;42.700;23.304;2023-08-31T04:41:24;94761.69;;;20.60;100.00
5500;BME280;2772;42.700;23.304;2023-08-31T04:43:51;94762.84;;;20.63;100.00
5500;BME280;2772;42.700;23.304;2023-08-31T04:46:18;94765.66;;;20.73;100.00
5500;BME280;2772;42.700;23.304;2023-08-31T04:48:46;94769.09;;;20.74;100.00
5500;BME280;2772;42.700;23.304;2023-08-31T04:51:28;94768.00;;;20.82;100.00
5500;BME280;2772;42.700;23.304;2023-08-31T04:53:54;94768.00;;;20.82;100.00
5500;BME280;2772;42.700;23.304;2023-08-31T04:56:21;94771.09;;;20.80;100.00
5500;BME280;2772;42.700;23.304;2023-08-31T04:58:48;94763.38;;;20.89;100.00
5500;BME280;2772;42.700;23.304;2023-08-31T05:01:14;94763.09;;;21.01;100.00
5500;BME280;2772;42.700;23.304;2023-08-31T05:03:41;94764.28;;;21.07;100.00
5500;BME280;2772;42.700;23.304;2023-08-31T05:06:09;94770.47;;;21.04;100.00
5500;BME280;2772;42.700;23.304;2023-08-31T05:08:36;94777.44;;;21.09;100.00
5500;BME280;2772;42.700;23.304;2023-08-31T05:11:03;94775.16;;;21.18;100.00
5500;BME280;2772;42.700;23.304;2023-08-31T05:13:30;94776.75;;;21.26;100.00
5500;BME280;2772;42.700;23.304;2023-08-31T05:15:57;94780.63;;;21.32;100.00
5500;BME280;2772;42.700;23.304;2023-08-31T05:18:24;94781.84;;;21.45;100.00
5500;BME280;2772;42.700;23.304;2023-08-31T05:20:50;94784.59;;;21.59;100.00
5500;BME280;2772;42.700;23.304;2023-08-31T05:23:18;94790.03;;;21.66;100.00
5500;BME280;2772;42.700;23.304;2023-08-31T05:25:45;94793.91;;;21.65;100.00
5500;BME280;2772;42.700;23.304;2023-08-31T05:28:12;94785.03;;;21.75;100.00
5500;BME280;2772;42.700;23.304;2023-08-31T05:30:50;94783.91;;;21.83;100.00
5500;BME280;2772;42.700;23.304;2023-08-31T05:33:17;94785.06;;;21.82;100.00
5500;BME280;2772;42.700;23.304;2023-08-31T05:35:44;94778.09;;;21.98;100.00
5500;BME280;2772;42.700;23.304;2023-08-31T05:38:10;94778.09;;;21.98;100.00
5500;BME280;2772;42.700;23.304;2023-08-31T05:40:39;94775.41;;;22.02;100.00
5500;BME280;2772;42.700;23.304;2023-08-31T05:43:10;94783.94;;;22.11;100.00
5500;BME280;2772;42.700;23.304;2023-08-31T05:45:37;94779.69;;;22.14;100.00
5500;BME280;2772;42.700;23.304;2023-08-31T05:48:04;94778.50;;;22.25;100.00
5500;BME280;2772;42.700;23.304;2023-08-31T05:50:31;94776.19;;;22.27;100.00
5500;BME280;2772;42.700;23.304;2023-08-31T05:52:58;94775.81;;;22.32;100.00
5500;BME280;2772;42.700;23.304;2023-08-31T05:55:25;94769.97;;;22.34;100.00
5500;BME280;2772;42.700;23.304;2023-08-31T05:57:53;94776.16;;;22.38;100.00
5500;BME280;2772;42.700;23.304;2023-08-31T06:00:20;94776.94;;;22.45;100.00
5500;BME280;2772;42.700;23.304;2023-08-31T06:02:47;94785.84;;;22.42;100.00
5500;BME280;2772;42.700;23.304;2023-08-31T06:05:13;94782.38;;;22.63;100.00
5500;BME280;2772;42.700;23.304;2023-08-31T06:07:41;94788.56;;;22.70;100.00
5500;BME280;2772;42.700;23.304;2023-08-31T06:10:09;94799.03;;;22.86;100.00
5500;BME280;2772;42.700;23.304;2023-08-31T06:12:36;94802.13;;;22.91;100.00
5500;BME280;2772;42.700;23.304;2023-08-31T06:15:05;94797.06;;;23.00;100.00
5500;BME280;2772;42.700;23.304;2023-08-31T06:17:32;94801.31;;;23.01;100.00
5500;BME280;2772;42.700;23.304;2023-08-31T06:20:00;94806.38;;;22.99;100.00
5500;BME280;2772;42.700;23.304;2023-08-31T06:22:30;94803.63;;;23.03;100.00
5500;BME280;2772;42.700;23.304;2023-08-31T06:24:57;94807.88;;;23.14;100.00
5500;BME280;2772;42.700;23.304;2023-08-31T06:27:23;94807.50;;;23.12;100.00
5500;BME280;2772;42.700;23.304;2023-08-31T06:29:50;94814.09;;;23.08;100.00
5500;BME280;2772;42.700;23.304;2023-08-31T06:32:18;94811.38;;;23.15;100.00
5500;BME280;2772;42.700;23.304;2023-08-31T06:34:45;94822.25;;;23.25;100.00
5500;BME280;2772;42.700;23.304;2023-08-31T06:37:12;94821.44;;;23.32;100.00
5500;BME280;2772;42.700;23.304;2023-08-31T06:39:38;94817.56;;;23.36;100.00
5500;BME280;2772;42.700;23.304;2023-08-31T06:42:06;94827.25;;;23.37;100.00
5500;BME280;2772;42.700;23.304;2023-08-31T06:44:33;94824.13;;;23.39;100.00
5500;BME280;2772;42.700;23.304;2023-08-31T06:46:59;94829.94;;;23.44;100.00
5500;BME280;2772;42.700;23.304;2023-08-31T06:49:27;94825.69;;;23.40;100.00
5500;BME280;2772;42.700;23.304;2023-08-31T06:51:55;94835.78;;;23.43;100.00
5500;BME280;2772;42.700;23.304;2023-08-31T06:54:22;94835.00;;;23.46;100.00
5500;BME280;2772;42.700;23.304;2023-08-31T06:56:49;94837.31;;;23.48;100.00
5500;BME280;2772;42.700;23.304;2023-08-31T06:59:15;94830.28;;;23.54;100.00
5500;BME280;2772;42.700;23.304;2023-08-31T07:01:42;94828.69;;;23.63;100.00
5500;BME280;2772;42.700;23.304;2023-08-31T07:04:09;94831.03;;;23.65;98.14
5500;BME280;2772;42.700;23.304;2023-08-31T07:06:37;94838.38;;;23.75;95.67
5500;BME280;2772;42.700;23.304;2023-08-31T07:09:04;94839.50;;;23.77;94.77
5500;BME280;2772;42.700;23.304;2023-08-31T07:11:33;94835.19;;;23.87;93.90
5500;BME280;2772;42.700;23.304;2023-08-31T07:14:02;94828.59;;;23.84;93.50
5500;BME280;2772;42.700;23.304;2023-08-31T07:16:29;94832.47;;;23.90;91.01
5500;BME280;2772;42.700;23.304;2023-08-31T07:18:56;94842.50;;;24.04;94.01
5500;BME280;2772;42.700;23.304;2023-08-31T07:21:22;94840.13;;;24.09;91.08
5500;BME280;2772;42.700;23.304;2023-08-31T07:23:50;94845.22;;;24.07;87.19
5500;BME280;2772;42.700;23.304;2023-08-31T07:26:17;94839.72;;;24.14;87.93
5500;BME280;2772;42.700;23.304;2023-08-31T07:28:44;94837.41;;;24.13;88.09
5500;BME280;2772;42.700;23.304;2023-08-31T07:31:12;94845.47;;;24.23;88.15
5500;BME280;2772;42.700;23.304;2023-08-31T07:33:40;94843.94;;;24.26;87.29
5500;BME280;2772;42.700;23.304;2023-08-31T07:36:07;94839.28;;;24.23;89.36
5500;BME280;2772;42.700;23.304;2023-08-31T07:38:34;94852.50;;;24.24;87.94
5500;BME280;2772;42.700;23.304;2023-08-31T07:41:02;94846.66;;;24.26;90.50
5500;BME280;2772;42.700;23.304;2023-08-31T07:43:29;94844.28;;;24.28;89.78
5500;BME280;2772;42.700;23.304;2023-08-31T07:45:57;94846.22;;;24.31;90.34
5500;BME280;2772;42.700;23.304;2023-08-31T07:48:24;94847.38;;;24.33;88.23
5500;BME280;2772;42.700;23.304;2023-08-31T07:50:50;94843.47;;;24.34;89.38
5500;BME280;2772;42.700;23.304;2023-08-31T07:53:17;94851.56;;;24.45;88.64
5500;BME280;2772;42.700;23.304;2023-08-31T07:55:51;94844.16;;;24.49;86.99
5500;BME280;2772;42.700;23.304;2023-08-31T07:58:21;94851.13;;;24.50;85.36
5500;BME280;2772;42.700;23.304;2023-08-31T08:00:47;94845.25;;;24.55;83.49
5500;BME280;2772;42.700;23.304;2023-08-31T08:03:14;94853.75;;;24.67;82.64
5500;BME280;2772;42.700;23.304;2023-08-31T08:05:41;94842.81;;;24.74;83.47
5500;BME280;2772;42.700;23.304;2023-08-31T08:08:08;94856.72;;;24.87;80.98
5500;BME280;2772;42.700;23.304;2023-08-31T08:10:34;94848.44;;;24.98;73.85
5500;BME280;2772;42.700;23.304;2023-08-31T08:13:01;94854.16;;;25.10;73.04
5500;BME280;2772;42.700;23.304;2023-08-31T08:15:30;94858.72;;;25.20;74.65
5500;BME280;2772;42.700;23.304;2023-08-31T08:17:57;94851.25;;;25.28;76.46
5500;BME280;2772;42.700;23.304;2023-08-31T08:20:23;94849.66;;;25.30;75.92
5500;BME280;2772;42.700;23.304;2023-08-31T08:22:50;94844.59;;;25.29;75.30
5500;BME280;2772;42.700;23.304;2023-08-31T08:25:18;94851.97;;;25.35;75.74
5500;BME280;2772;42.700;23.304;2023-08-31T08:27:45;94844.13;;;25.37;74.55
5500;BME280;2772;42.700;23.304;2023-08-31T08:30:12;94849.94;;;25.43;73.26
5500;BME280;2772;42.700;23.304;2023-08-31T08:32:41;94846.78;;;25.44;68.88
5500;BME280;2772;42.700;23.304;2023-08-31T08:35:08;94850.22;;;25.52;66.94
5500;BME280;2772;42.700;23.304;2023-08-31T08:37:35;94844.88;;;25.41;62.27
5500;BME280;2772;42.700;23.304;2023-08-31T08:40:02;94845.13;;;25.54;61.87
5500;BME280;2772;42.700;23.304;2023-08-31T08:42:30;94850.91;;;25.59;59.17
5500;BME280;2772;42.700;23.304;2023-08-31T08:44:57;94852.09;;;25.58;61.38
5500;BME280;2772;42.700;23.304;2023-08-31T08:47:25;94843.13;;;25.58;59.14
5500;BME280;2772;42.700;23.304;2023-08-31T08:49:54;94845.00;;;25.64;59.78
5500;BME280;2772;42.700;23.304;2023-08-31T08:52:22;94844.09;;;25.74;56.76
5500;BME280;2772;42.700;23.304;2023-08-31T08:54:49;94845.56;;;25.82;53.93
5500;BME280;2772;42.700;23.304;2023-08-31T08:57:16;94857.19;;;25.86;53.99
5500;BME280;2772;42.700;23.304;2023-08-31T08:59:43;94845.56;;;25.82;54.59
5500;BME280;2772;42.700;23.304;2023-08-31T09:02:10;94843.22;;;25.81;56.83
5500;BME280;2772;42.700;23.304;2023-08-31T09:04:37;94847.31;;;25.96;54.75
5500;BME280;2772;42.700;23.304;2023-08-31T09:07:06;94854.97;;;26.08;54.30
5500;BME280;2772;42.700;23.304;2023-08-31T09:09:48;94853.75;;;26.12;54.89
5500;BME280;2772;42.700;23.304;2023-08-31T09:12:15;94835.03;;;26.11;55.61
5500;BME280;2772;42.700;23.304;2023-08-31T09:14:42;94838.81;;;26.20;56.65
5500;BME280;2772;42.700;23.304;2023-08-31T09:17:09;94840.56;;;26.34;57.90
5500;BME280;2772;42.700;23.304;2023-08-31T09:19:36;94832.25;;;26.41;58.04
5500;BME280;2772;42.700;23.304;2023-08-31T09:22:03;94835.28;;;26.46;59.51
5500;BME280;2772;42.700;23.304;2023-08-31T09:24:41;94845.09;;;26.44;57.14
5500;BME280;2772;42.700;23.304;2023-08-31T09:27:10;94854.31;;;26.54;56.66
5500;BME280;2772;42.700;23.304;2023-08-31T09:29:38;94843.69;;;26.59;55.16
5500;BME280;2772;42.700;23.304;2023-08-31T09:32:05;94836.25;;;26.60;54.96
5500;BME280;2772;42.700;23.304;2023-08-31T09:34:36;94849.88;;;26.63;54.72
5500;BME280;2772;42.700;23.304;2023-08-31T09:37:06;94842.38;;;26.71;54.80
5500;BME280;2772;42.700;23.304;2023-08-31T09:39:37;94848.72;;;26.87;54.61
5500;BME280;2772;42.700;23.304;2023-08-31T09:42:07;94843.66;;;26.86;53.46
5500;BME280;2772;42.700;23.304;2023-08-31T09:44:33;94836.25;;;26.86;53.83
5500;BME280;2772;42.700;23.304;2023-08-31T09:47:00;94831.13;;;26.88;53.71
5500;BME280;2772;42.700;23.304;2023-08-31T09:49:29;94829.53;;;26.91;55.61
5500;BME280;2772;42.700;23.304;2023-08-31T09:51:57;94828.75;;;26.90;56.01
5500;BME280;2772;42.700;23.304;2023-08-31T09:54:27;94836.19;;;26.90;56.16
5500;BME280;2772;42.700;23.304;2023-08-31T09:56:58;94838.03;;;26.96;49.52
5500;BME280;2772;42.700;23.304;2023-08-31T09:59:28;94840.28;;;27.01;46.31
5500;BME280;2772;42.700;23.304;2023-08-31T10:01:55;94846.50;;;27.02;47.05
5500;BME280;2772;42.700;23.304;2023-08-31T10:04:23;94832.16;;;26.98;46.21
5500;BME280;2772;42.700;23.304;2023-08-31T10:06:50;94846.28;;;26.93;46.73
5500;BME280;2772;42.700;23.304;2023-08-31T10:09:17;94836.09;;;26.93;45.72
5500;BME280;2772;42.700;23.304;2023-08-31T10:11:46;94838.94;;;26.90;46.42
5500;BME280;2772;42.700;23.304;2023-08-31T10:14:13;94832.63;;;26.93;47.30
5500;BME280;2772;42.700;23.304;2023-08-31T10:16:44;94825.34;;;26.83;44.77
5500;BME280;2772;42.700;23.304;2023-08-31T10:19:11;94822.63;;;26.83;44.68
5500;BME280;2772;42.700;23.304;2023-08-31T10:21:40;94832.19;;;26.94;44.87
5500;BME280;2772;42.700;23.304;2023-08-31T10:24:09;94825.69;;;27.08;44.53
5500;BME280;2772;42.700;23.304;2023-08-31T10:26:36;94812.91;;;27.24;44.47
5500;BME280;2772;42.700;23.304;2023-08-31T10:29:03;94826.81;;;27.33;45.10
5500;BME280;2772;42.700;23.304;2023-08-31T10:31:31;94824.66;;;27.44;42.83
5500;BME280;2772;42.700;23.304;2023-08-31T10:34:00;94823.25;;;27.56;44.31
5500;BME280;2772;42.700;23.304;2023-08-31T10:36:37;94831.38;;;27.59;45.26
5500;BME280;2772;42.700;23.304;2023-08-31T10:39:12;94837.28;;;27.58;45.40
5500;BME280;2772;42.700;23.304;2023-08-31T10:41:39;94835.38;;;27.55;45.87
5500;BME280;2772;42.700;23.304;2023-08-31T10:44:19;94833.75;;;27.57;45.94
5500;BME280;2772;42.700;23.304;2023-08-31T10:46:46;94840.88;;;27.55;46.76
5500;BME280;2772;42.700;23.304;2023-08-31T10:49:16;94835.13;;;27.49;47.06
5500;BME280;2772;42.700;23.304;2023-08-31T10:51:44;94839.13;;;27.64;47.65
5500;BME280;2772;42.700;23.304;2023-08-31T10:54:12;94843.16;;;27.76;47.54
5500;BME280;2772;42.700;23.304;2023-08-31T10:56:53;94838.34;;;27.83;48.01
5500;BME280;2772;42.700;23.304;2023-08-31T10:59:19;94845.31;;;27.88;49.68
5500;BME280;2772;42.700;23.304;2023-08-31T11:01:55;94833.28;;;27.82;49.77
5500;BME280;2772;42.700;23.304;2023-08-31T11:04:24;94837.19;;;27.81;49.00
5500;BME280;2772;42.700;23.304;2023-08-31T11:07:11;94841.50;;;27.82;50.45
5500;BME280;2772;42.700;23.304;2023-08-31T11:09:38;94845.78;;;27.63;50.14
5500;BME280;2772;42.700;23.304;2023-08-31T11:12:05;94846.41;;;27.51;50.66
5500;BME280;2772;42.700;23.304;2023-08-31T11:14:32;94848.56;;;27.40;50.69
5500;BME280;2772;42.700;23.304;2023-08-31T11:16:59;94853.97;;;27.44;51.58
5500;BME280;2772;42.700;23.304;2023-08-31T11:19:28;94857.97;;;27.39;50.39
5500;BME280;2772;42.700;23.304;2023-08-31T11:21:54;94842.13;;;27.50;50.16
5500;BME280;2772;42.700;23.304;2023-08-31T11:24:21;94842.81;;;27.54;49.81
5500;BME280;2772;42.700;23.304;2023-08-31T11:26:49;94846.28;;;27.58;49.15
5500;BME280;2772;42.700;23.304;2023-08-31T11:29:16;94845.84;;;27.60;49.68
5500;BME280;2772;42.700;23.304;2023-08-31T11:31:43;94842.13;;;27.70;49.18
5500;BME280;2772;42.700;23.304;2023-08-31T11:34:12;94845.56;;;27.74;49.69
5500;BME280;2772;42.700;23.304;2023-08-31T11:36:41;94855.06;;;27.89;49.28
5500;BME280;2772;42.700;23.304;2023-08-31T11:39:09;94848.50;;;27.83;48.00
5500;BME280;2772;42.700;23.304;2023-08-31T11:41:36;94845.75;;;27.83;50.08
5500;BME280;2772;42.700;23.304;2023-08-31T11:44:07;94857.09;;;27.85;53.41
5500;BME280;2772;42.700;23.304;2023-08-31T11:46:35;94852.44;;;27.82;54.66
5500;BME280;2772;42.700;23.304;2023-08-31T11:49:03;94838.41;;;27.80;56.04
5500;BME280;2772;42.700;23.304;2023-08-31T11:51:31;94845.38;;;27.65;55.95
5500;BME280;2772;42.700;23.304;2023-08-31T11:54:00;94836.72;;;27.47;56.24
5500;BME280;2772;42.700;23.304;2023-08-31T11:56:38;94835.44;;;27.51;56.81
5500;BME280;2772;42.700;23.304;2023-08-31T11:59:08;94833.72;;;27.41;57.05
5500;BME280;2772;42.700;23.304;2023-08-31T12:01:38;94827.72;;;27.46;56.73
5500;BME280;2772;42.700;23.304;2023-08-31T12:04:10;94831.50;;;27.33;56.37
5500;BME280;2772;42.700;23.304;2023-08-31T12:06:37;94831.88;;;27.35;55.21
5500;BME280;2772;42.700;23.304;2023-08-31T12:09:06;94839.31;;;27.34;55.54
5500;BME280;2772;42.700;23.304;2023-08-31T12:11:33;94826.69;;;27.17;55.71
5500;BME280;2772;42.700;23.304;2023-08-31T12:14:00;94838.25;;;27.28;55.83
5500;BME280;2772;42.700;23.304;2023-08-31T12:16:32;94838.19;;;27.32;55.76
5500;BME280;2772;42.700;23.304;2023-08-31T12:18:59;94819.72;;;27.36;55.88
5500;BME280;2772;42.700;23.304;2023-08-31T12:21:26;94816.94;;;27.39;55.80
5500;BME280;2772;42.700;23.304;2023-08-31T12:23:52;94817.63;;;27.43;55.67
5500;BME280;2772;42.700;23.304;2023-08-31T12:26:21;94823.72;;;27.31;56.37
5500;BME280;2772;42.700;23.304;2023-08-31T12:28:48;94807.25;;;27.35;56.81
5500;BME280;2772;42.700;23.304;2023-08-31T12:31:14;94802.94;;;27.34;56.98
5500;BME280;2772;42.700;23.304;2023-08-31T12:33:41;94815.81;;;27.37;58.01
5500;BME280;2772;42.700;23.304;2023-08-31T12:36:08;94816.09;;;27.42;55.58
5500;BME280;2772;42.700;23.304;2023-08-31T12:38:35;94814.81;;;27.47;55.95
5500;BME280;2772;42.700;23.304;2023-08-31T12:41:02;94824.19;;;27.49;55.56
5500;BME280;2772;42.700;23.304;2023-08-31T12:43:30;94813.97;;;27.50;55.42
5500;BME280;2772;42.700;23.304;2023-08-31T12:45:57;94811.59;;;27.52;55.13
5500;BME280;2772;42.700;23.304;2023-08-31T12:48:24;94819.31;;;27.57;54.54
5500;BME280;2772;42.700;23.304;2023-08-31T12:50:51;94819.94;;;27.64;53.13
5500;BME280;2772;42.700;23.304;2023-08-31T12:53:21;94826.22;;;27.65;52.47
5500;BME280;2772;42.700;23.304;2023-08-31T12:55:48;94818.91;;;27.58;50.68
5500;BME280;2772;42.700;23.304;2023-08-31T12:58:15;94819.31;;;27.57;51.70
5500;BME280;2772;42.700;23.304;2023-08-31T13:00:43;94816.16;;;27.58;53.61
5500;BME280;2772;42.700;23.304;2023-08-31T13:03:11;94812.09;;;27.66;52.72
5500;BME280;2772;42.700;23.304;2023-08-31T13:05:39;94813.41;;;27.78;52.39
5500;BME280;2772;42.700;23.304;2023-08-31T13:08:06;94808.22;;;27.83;52.49
5500;BME280;2772;42.700;23.304;2023-08-31T13:10:33;94813.13;;;27.92;52.72